createdAt,value
2023-02-23T00:02:07.845Z,195.00
2023-02-23T00:04:36.239Z,202.45
2023-02-23T00:07:06.324Z,192.73
2023-02-23T00:09:36.267Z,194.07
2023-02-23T00:12:09.210Z,205.85
2023-02-23T00:14:38.395Z,198.30
2023-02-23T00:17:14.365Z,196.38
2023-02-23T00:19:43.805Z,203.35
2023-02-23T00:22:12.049Z,201.98
2023-02-23T00:24:40.632Z,203.25
2023-02-23T00:27:07.699Z,203.20
2023-02-23T00:29:39.533Z,201.23
2023-02-23T00:32:07.466Z,199.95
2023-02-23T00:34:36.794Z,198.18
2023-02-23T00:37:04.535Z,186.60
2023-02-23T00:39:31.719Z,204.80
2023-02-23T00:42:03.110Z,192.63
2023-02-23T00:44:31.918Z,191.18
2023-02-23T00:46:58.878Z,197.65
2023-02-23T00:49:26.970Z,197.20
2023-02-23T00:51:54.866Z,191.63
2023-02-23T00:54:22.921Z,185.10
2023-02-23T00:56:50.772Z,201.45
2023-02-23T00:59:19.695Z,183.23
2023-02-23T01:01:47.246Z,194.40
2023-02-23T01:04:14.994Z,185.93
2023-02-23T01:06:42.751Z,193.95
2023-02-23T01:09:16.142Z,192.38
2023-02-23T01:11:46.965Z,181.85
2023-02-23T01:14:15.082Z,201.27
2023-02-23T01:16:42.153Z,188.77
2023-02-23T01:19:10.472Z,211.15
2023-02-23T01:21:42.162Z,212.63
2023-02-23T01:24:10.677Z,205.02
2023-02-23T01:26:44.125Z,213.88
2023-02-23T01:29:16.054Z,209.82
2023-02-23T01:31:46.612Z,215.98
2023-02-23T01:34:21.736Z,208.48
2023-02-23T01:36:49.117Z,194.35
2023-02-23T01:39:20.059Z,204.02
2023-02-23T01:41:47.535Z,212.50
2023-02-23T01:44:15.242Z,198.27
2023-02-23T01:46:46.058Z,197.38
2023-02-23T01:49:20.746Z,189.43
2023-02-23T01:52:00.506Z,208.05
2023-02-23T01:54:36.501Z,201.13
2023-02-23T01:57:06.976Z,190.10
2023-02-23T01:59:47.586Z,208.40
2023-02-23T02:02:18.442Z,197.85
2023-02-23T02:04:46.080Z,208.43
2023-02-23T02:07:25.119Z,214.80
2023-02-23T02:10:11.744Z,213.57
2023-02-23T02:12:52.162Z,193.95
2023-02-23T02:15:22.967Z,205.88
2023-02-23T02:18:18.706Z,205.88
2023-02-23T02:21:29.471Z,217.85
2023-02-23T02:24:28.394Z,212.75
2023-02-23T02:27:39.441Z,211.93
2023-02-23T02:30:34.499Z,217.73
2023-02-23T02:33:45.564Z,211.48
2023-02-23T02:37:00.466Z,226.18
2023-02-23T02:39:53.728Z,211.43
2023-02-23T02:42:40.361Z,238.52
2023-02-23T02:45:37.866Z,240.98
2023-02-23T02:48:42.401Z,234.77
2023-02-23T02:51:24.604Z,249.38
2023-02-23T02:54:11.328Z,246.40
2023-02-23T02:56:43.311Z,246.68
2023-02-23T02:59:32.861Z,251.95
2023-02-23T03:02:18.981Z,221.13
2023-02-23T03:05:05.296Z,232.85
2023-02-23T03:08:21.993Z,225.07
2023-02-23T03:11:21.419Z,224.82
2023-02-23T03:14:50.070Z,237.13
2023-02-23T03:18:03.494Z,223.40
2023-02-23T03:20:52.981Z,221.55
2023-02-23T03:24:15.848Z,237.60
2023-02-23T03:27:20.108Z,251.32
2023-02-23T03:30:25.459Z,242.20
2023-02-23T03:33:16.976Z,258.23
2023-02-23T03:36:24.781Z,289.70
2023-02-23T03:39:23.355Z,283.75
2023-02-23T03:42:12.038Z,258.48
2023-02-23T03:45:04.657Z,262.23
2023-02-23T03:47:56.149Z,242.82
2023-02-23T03:50:59.832Z,229.32
2023-02-23T03:54:00.643Z,259.52
2023-02-23T03:56:52.460Z,263.40
2023-02-23T03:59:43.697Z,214.38
2023-02-23T04:02:33.708Z,224.02
2023-02-23T04:05:25.563Z,227.40
2023-02-23T04:08:13.292Z,282.10
2023-02-23T04:11:09.604Z,254.00
2023-02-23T04:13:39.806Z,301.52
2023-02-23T04:16:09.547Z,322.05
2023-02-23T04:18:39.468Z,314.65
2023-02-23T04:21:07.812Z,298.77
2023-02-23T04:23:36.235Z,291.42
2023-02-23T04:26:05.267Z,266.35
2023-02-23T04:28:32.357Z,268.20
2023-02-23T04:30:59.401Z,286.75
2023-02-23T04:33:27.296Z,295.35
2023-02-23T04:35:54.877Z,292.75
2023-02-23T04:38:23.278Z,296.40
2023-02-23T04:40:51.035Z,264.52
2023-02-23T04:43:18.324Z,333.33
2023-02-23T04:45:45.819Z,324.15
2023-02-23T04:48:12.901Z,305.70
2023-02-23T04:50:39.911Z,317.42
2023-02-23T04:53:07.024Z,309.42
2023-02-23T04:55:34.573Z,280.23
2023-02-23T04:58:03.075Z,333.50
2023-02-23T05:00:31.624Z,263.88
2023-02-23T05:02:58.765Z,291.02
2023-02-23T05:05:26.520Z,269.92
2023-02-23T05:07:55.144Z,305.33
2023-02-23T05:10:22.585Z,285.75
2023-02-23T05:12:49.845Z,294.10
2023-02-23T05:15:17.461Z,267.70
2023-02-23T05:17:44.554Z,275.15
2023-02-23T05:20:13.570Z,309.15
2023-02-23T05:22:41.561Z,312.60
2023-02-23T05:25:10.387Z,289.55
2023-02-23T05:27:38.213Z,254.90
2023-02-23T05:30:07.971Z,249.88
2023-02-23T05:32:35.634Z,266.48
2023-02-23T05:35:03.425Z,254.38
2023-02-23T05:37:30.837Z,256.27
2023-02-23T05:39:58.449Z,231.77
2023-02-23T05:42:25.816Z,275.38
2023-02-23T05:44:52.922Z,253.45
2023-02-23T05:47:19.951Z,287.50
2023-02-23T05:49:47.224Z,263.15
2023-02-23T05:52:14.320Z,266.98
2023-02-23T05:54:41.726Z,255.80
2023-02-23T05:57:09.077Z,274.65
2023-02-23T05:59:36.617Z,328.20
2023-02-23T06:02:06.200Z,260.15
2023-02-23T06:04:34.032Z,257.30
2023-02-23T06:07:01.167Z,247.75
2023-02-23T06:09:28.231Z,279.55
2023-02-23T06:11:55.268Z,248.75
2023-02-23T06:14:22.269Z,270.88
2023-02-23T06:16:49.343Z,265.33
2023-02-23T06:19:16.393Z,262.80
2023-02-23T06:21:43.492Z,283.73
2023-02-23T06:24:11.006Z,265.45
2023-02-23T06:26:38.170Z,269.60
2023-02-23T06:29:05.992Z,267.23
2023-02-23T06:31:32.986Z,289.30
2023-02-23T06:33:59.980Z,271.80
2023-02-23T06:36:27.914Z,300.80
2023-02-23T06:38:59.152Z,251.65
2023-02-23T06:41:27.246Z,253.73
2023-02-23T06:43:54.352Z,296.30
2023-02-23T06:46:21.703Z,262.55
2023-02-23T06:48:48.840Z,267.13
2023-02-23T06:51:15.999Z,268.77
2023-02-23T06:53:43.287Z,250.35
2023-02-23T06:56:12.446Z,280.15
2023-02-23T06:58:43.353Z,276.30
2023-02-23T07:01:12.369Z,253.63
2023-02-23T07:03:40.065Z,273.20
2023-02-23T07:06:07.558Z,255.85
2023-02-23T07:08:35.548Z,254.75
2023-02-23T07:11:14.203Z,255.25
2023-02-23T07:13:45.403Z,284.77
2023-02-23T07:16:14.683Z,293.58
2023-02-23T07:18:42.159Z,299.48
2023-02-23T07:21:09.306Z,307.83
2023-02-23T07:23:36.521Z,269.88
2023-02-23T07:26:03.699Z,318.70
2023-02-23T07:28:30.836Z,305.05
2023-02-23T07:31:01.489Z,345.00
2023-02-23T07:33:29.624Z,342.50
2023-02-23T07:36:06.368Z,330.17
2023-02-23T07:38:34.033Z,279.38
2023-02-23T07:41:01.275Z,286.02
2023-02-23T07:43:28.841Z,296.27
2023-02-23T07:46:01.127Z,301.45
2023-02-23T07:48:29.462Z,295.10
2023-02-23T07:50:56.935Z,308.83
2023-02-23T07:53:27.805Z,309.13
2023-02-23T07:55:58.474Z,290.20
2023-02-23T07:58:25.726Z,282.15
2023-02-23T08:00:54.877Z,294.63
2023-02-23T08:03:53.641Z,293.05
2023-02-23T08:06:21.304Z,284.55
2023-02-23T08:08:49.368Z,304.48
2023-02-23T08:11:16.672Z,320.00
2023-02-23T08:13:44.316Z,297.02
2023-02-23T08:16:12.623Z,290.98
2023-02-23T08:18:39.776Z,250.75
2023-02-23T08:21:07.811Z,285.98
2023-02-23T08:23:35.204Z,278.40
2023-02-23T08:26:03.180Z,271.77
2023-02-23T08:28:31.439Z,293.98
2023-02-23T08:30:59.584Z,290.90
2023-02-23T08:33:26.929Z,290.40
2023-02-23T08:35:54.046Z,297.00
2023-02-23T08:38:21.301Z,291.50
2023-02-23T08:40:48.498Z,283.95
2023-02-23T08:43:17.609Z,278.13
2023-02-23T08:45:44.716Z,289.27
2023-02-23T08:48:11.891Z,289.35
2023-02-23T08:50:39.304Z,271.48
2023-02-23T08:53:07.610Z,282.98
2023-02-23T08:55:35.795Z,281.90
2023-02-23T08:58:03.194Z,264.00
2023-02-23T09:00:31.563Z,275.92
2023-02-23T09:02:58.831Z,265.63
2023-02-23T09:05:26.097Z,270.95
2023-02-23T09:07:53.365Z,281.65
2023-02-23T09:10:25.000Z,282.60
2023-02-23T09:12:52.184Z,275.30
2023-02-23T09:15:19.896Z,273.30
2023-02-23T09:17:48.070Z,262.67
2023-02-23T09:20:16.852Z,290.73
2023-02-23T09:22:50.159Z,269.85
2023-02-23T09:25:22.894Z,259.00
2023-02-23T09:27:57.105Z,280.50
2023-02-23T09:30:24.269Z,275.15
2023-02-23T09:32:52.626Z,270.58
2023-02-23T09:35:22.465Z,253.25
2023-02-23T09:37:53.106Z,249.00
2023-02-23T09:40:30.902Z,239.02
2023-02-23T09:43:35.715Z,252.75
2023-02-23T09:46:19.215Z,233.57
2023-02-23T09:48:46.438Z,230.93
2023-02-23T09:51:19.359Z,224.65
2023-02-23T09:53:54.872Z,223.50
2023-02-23T09:56:37.320Z,215.60
2023-02-23T09:59:17.436Z,197.77
2023-02-23T10:01:48.129Z,205.82
2023-02-23T10:04:31.212Z,211.13
2023-02-23T10:07:21.161Z,198.82
2023-02-23T10:10:23.725Z,219.82
2023-02-23T10:13:02.905Z,202.45
2023-02-23T10:16:04.388Z,203.27
2023-02-23T10:19:28.102Z,193.30
2023-02-23T10:22:05.032Z,181.10
2023-02-23T10:24:46.377Z,176.95
2023-02-23T10:27:30.826Z,192.52
2023-02-23T10:32:49.522Z,149.73
2023-02-23T10:35:21.441Z,146.73
2023-02-23T10:37:50.988Z,149.27
2023-02-23T10:40:28.805Z,151.25
2023-02-23T10:42:58.301Z,140.18
2023-02-23T10:45:29.018Z,140.60
2023-02-23T10:48:06.086Z,130.85
2023-02-23T10:50:37.005Z,118.78
2023-02-23T10:53:26.823Z,122.32
2023-02-23T10:56:18.520Z,118.32
2023-02-23T10:58:52.942Z,125.25
2023-02-23T11:02:00.558Z,121.75
2023-02-23T11:04:32.226Z,116.22
2023-02-23T11:07:22.700Z,116.43
2023-02-23T11:09:51.682Z,118.82
2023-02-23T11:12:24.303Z,116.45
2023-02-23T11:14:55.120Z,106.60
2023-02-23T11:17:37.803Z,106.68
2023-02-23T11:20:30.981Z,90.68
2023-02-23T11:23:03.657Z,103.22
2023-02-23T11:25:38.743Z,99.43
2023-02-23T11:28:05.938Z,86.50
2023-02-23T11:30:38.326Z,93.57
2023-02-23T11:33:10.748Z,79.15
2023-02-23T11:35:39.094Z,73.00
2023-02-23T11:38:29.219Z,82.07
2023-02-23T11:41:23.962Z,77.15
2023-02-23T11:46:28.793Z,76.38
2023-02-23T11:49:36.110Z,76.20
2023-02-23T11:52:03.559Z,63.78
2023-02-23T11:54:34.530Z,65.55
2023-02-23T11:57:06.330Z,65.90
2023-02-23T11:59:40.681Z,67.22
2023-02-23T12:02:19.300Z,63.42
2023-02-23T12:04:47.960Z,64.10
2023-02-23T12:07:44.087Z,63.58
2023-02-23T12:10:22.985Z,55.55
2023-02-23T12:13:00.907Z,59.05
2023-02-23T12:16:01.665Z,41.28
2023-02-23T12:18:50.081Z,49.38
2023-02-23T12:21:34.091Z,55.30
2023-02-23T12:24:19.859Z,56.90
2023-02-23T12:27:06.402Z,58.55
2023-02-23T12:29:58.962Z,54.03
2023-02-23T12:32:45.833Z,63.53
2023-02-23T12:35:33.914Z,59.47
2023-02-23T12:38:10.540Z,59.17
2023-02-23T12:40:42.216Z,53.25
2023-02-23T12:43:21.906Z,49.92
2023-02-23T12:46:08.583Z,60.45
2023-02-23T12:49:19.704Z,47.25
2023-02-23T12:52:08.674Z,51.78
2023-02-23T12:54:37.098Z,47.60
2023-02-23T12:57:23.915Z,51.97
2023-02-23T13:00:51.358Z,44.83
2023-02-23T13:03:56.324Z,44.75
2023-02-23T13:06:44.704Z,39.85
2023-02-23T13:09:46.958Z,53.30
2023-02-23T13:12:26.824Z,47.08
2023-02-23T13:15:27.123Z,45.70
2023-02-23T13:18:13.829Z,41.97
2023-02-23T13:21:20.278Z,47.20
2023-02-23T13:24:02.228Z,40.70
2023-02-23T13:26:44.553Z,48.95
2023-02-23T13:29:34.692Z,43.00
2023-02-23T13:32:05.249Z,44.08
2023-02-23T13:34:49.985Z,44.08
2023-02-23T13:37:22.339Z,43.72
2023-02-23T13:40:09.638Z,41.72
2023-02-23T13:43:30.190Z,43.05
2023-02-23T13:46:37.423Z,44.03
2023-02-23T13:49:47.254Z,37.65
2023-02-23T13:52:40.084Z,42.13
2023-02-23T13:55:25.961Z,50.47
2023-02-23T13:58:07.496Z,44.35
2023-02-23T14:00:34.991Z,46.40
2023-02-23T14:03:08.797Z,45.92
2023-02-23T14:05:44.667Z,42.30
2023-02-23T14:08:37.474Z,36.42
2023-02-23T14:11:06.784Z,41.60
2023-02-23T14:13:41.353Z,50.22
2023-02-23T14:16:20.605Z,46.75
2023-02-23T14:19:03.921Z,43.38
2023-02-23T14:21:44.579Z,39.28
2023-02-23T14:24:36.971Z,35.88
2023-02-23T14:27:41.461Z,40.53
2023-02-23T14:30:12.098Z,40.22
2023-02-23T14:32:41.425Z,34.55
2023-02-23T14:35:33.189Z,34.63
2023-02-23T14:38:24.954Z,33.08
2023-02-23T14:40:54.507Z,36.80
2023-02-23T14:43:42.994Z,36.95
2023-02-23T14:46:28.473Z,38.50
2023-02-23T14:49:10.590Z,38.33
2023-02-23T14:51:48.677Z,36.30
2023-02-23T14:54:28.930Z,39.30
2023-02-23T14:56:58.429Z,36.90
2023-02-23T14:59:39.583Z,40.28
2023-02-23T15:02:24.387Z,35.95
2023-02-23T15:04:53.932Z,36.55
2023-02-23T15:07:41.092Z,41.10
2023-02-23T15:10:21.167Z,39.53
2023-02-23T15:12:49.024Z,42.80
2023-02-23T15:15:24.544Z,39.70
2023-02-23T15:17:59.879Z,41.53
2023-02-23T15:23:04.293Z,36.55
2023-02-23T15:25:40.582Z,42.05
2023-02-23T15:28:29.680Z,42.13
2023-02-23T15:31:02.266Z,39.53
2023-02-23T15:33:30.504Z,51.35
2023-02-23T15:36:07.147Z,43.65
2023-02-23T15:38:46.785Z,43.95
2023-02-23T15:41:36.206Z,47.30
2023-02-23T15:44:15.112Z,44.47
2023-02-23T15:46:45.490Z,46.58
2023-02-23T15:49:19.552Z,49.08
2023-02-23T15:51:57.240Z,48.10
2023-02-23T15:54:34.581Z,50.33
2023-02-23T15:57:19.693Z,49.65
2023-02-23T15:59:50.324Z,49.60
2023-02-23T16:02:20.696Z,48.47
2023-02-23T16:04:54.005Z,50.78
2023-02-23T16:07:25.129Z,52.15
2023-02-23T16:09:53.530Z,50.33
2023-02-23T16:12:25.492Z,54.03
2023-02-23T16:14:58.002Z,48.90
2023-02-23T16:17:44.749Z,47.50
2023-02-23T16:20:26.815Z,49.78
2023-02-23T16:22:55.034Z,45.28
2023-02-23T16:25:26.869Z,50.53
2023-02-23T16:28:09.585Z,47.38
2023-02-23T16:30:51.754Z,53.47
2023-02-23T16:33:43.886Z,45.85
2023-02-23T16:36:14.242Z,47.72
2023-02-23T16:39:01.558Z,43.95
2023-02-23T16:41:34.743Z,49.85
2023-02-23T16:44:06.374Z,50.27
2023-02-23T16:47:09.266Z,47.42
2023-02-23T16:49:36.370Z,51.45
2023-02-23T16:52:15.765Z,50.80
2023-02-23T16:54:42.924Z,48.45
2023-02-23T16:57:22.516Z,46.10
2023-02-23T16:59:51.855Z,47.20
2023-02-23T17:02:22.807Z,54.30
2023-02-23T17:04:51.863Z,49.67
2023-02-23T17:07:22.968Z,54.78
2023-02-23T17:09:51.048Z,51.17
2023-02-23T17:12:21.827Z,52.65
2023-02-23T17:14:49.812Z,48.17
2023-02-23T17:17:19.244Z,50.40
2023-02-23T17:19:46.775Z,51.45
2023-02-23T17:22:14.560Z,50.80
2023-02-23T17:24:42.721Z,50.72
2023-02-23T17:27:10.445Z,52.67
2023-02-23T17:29:37.476Z,52.08
2023-02-23T17:32:04.999Z,56.60
2023-02-23T17:34:32.216Z,50.28
2023-02-23T17:36:59.214Z,56.33
2023-02-23T17:39:28.172Z,52.47
2023-02-23T17:41:55.917Z,53.67
2023-02-23T17:44:23.134Z,54.78
2023-02-23T17:46:50.117Z,54.15
2023-02-23T17:49:17.082Z,52.30
2023-02-23T17:51:44.176Z,51.92
2023-02-23T17:54:11.279Z,54.85
2023-02-23T17:56:38.680Z,53.17
2023-02-23T17:59:05.684Z,50.15
2023-02-23T18:01:32.980Z,49.30
2023-02-23T18:04:00.805Z,54.83
2023-02-23T18:06:28.513Z,54.75
2023-02-23T18:08:55.788Z,54.75
2023-02-23T18:11:23.477Z,55.22
2023-02-23T18:13:51.553Z,52.38
2023-02-23T18:16:19.551Z,61.20
2023-02-23T18:18:48.400Z,59.97
2023-02-23T18:21:20.360Z,57.15
2023-02-23T18:23:48.860Z,64.07
2023-02-23T18:26:20.505Z,57.60
2023-02-23T18:28:48.055Z,61.55
2023-02-23T18:31:19.570Z,67.20
2023-02-23T18:33:49.943Z,62.28
2023-02-23T18:36:28.006Z,73.22
2023-02-23T18:38:57.775Z,64.65
2023-02-23T18:41:30.834Z,71.95
2023-02-23T18:44:03.013Z,75.57
2023-02-23T18:46:31.317Z,72.97
2023-02-23T18:48:59.189Z,76.43
2023-02-23T18:51:27.002Z,80.53
2023-02-23T18:53:55.288Z,80.65
2023-02-23T18:56:28.144Z,76.72
2023-02-23T18:58:59.811Z,84.95
2023-02-23T19:01:31.253Z,78.78
2023-02-23T19:04:01.685Z,87.95
2023-02-23T19:06:31.495Z,84.30
2023-02-23T19:09:03.177Z,77.88
2023-02-23T19:11:34.211Z,83.95
2023-02-23T19:14:40.856Z,81.30
2023-02-23T19:17:09.780Z,87.05
2023-02-23T19:19:38.119Z,92.80
2023-02-23T19:22:05.304Z,95.40
2023-02-23T19:24:32.550Z,86.25
2023-02-23T19:27:00.306Z,85.45
2023-02-23T19:29:27.675Z,80.53
2023-02-23T19:31:55.039Z,78.80
2023-02-23T19:34:22.882Z,82.68
2023-02-23T19:36:50.256Z,82.18
2023-02-23T19:39:18.807Z,91.53
2023-02-23T19:41:47.200Z,98.60
2023-02-23T19:44:14.250Z,92.47
2023-02-23T19:46:42.957Z,98.32
2023-02-23T19:49:10.328Z,93.30
2023-02-23T19:51:37.650Z,94.82
2023-02-23T19:54:06.327Z,90.45
2023-02-23T19:56:34.103Z,96.35
2023-02-23T19:59:02.480Z,92.38
2023-02-23T20:01:30.025Z,98.15
2023-02-23T20:04:04.438Z,92.75
2023-02-23T20:06:39.199Z,95.68
2023-02-23T20:09:07.433Z,96.10
2023-02-23T20:11:34.645Z,95.15
2023-02-23T20:14:03.643Z,95.28
2023-02-23T20:16:31.251Z,97.97
2023-02-23T20:18:58.737Z,92.32
2023-02-23T20:21:28.640Z,97.53
2023-02-23T20:23:56.641Z,96.75
2023-02-23T20:26:30.489Z,87.35
2023-02-23T20:28:58.647Z,95.13
2023-02-23T20:31:29.882Z,89.85
2023-02-23T20:34:00.825Z,89.53
2023-02-23T20:36:27.982Z,92.47
2023-02-23T20:38:56.514Z,87.38
2023-02-23T20:41:25.513Z,89.50
2023-02-23T20:43:52.910Z,88.75
2023-02-23T20:46:20.749Z,97.35
2023-02-23T20:48:49.200Z,92.57
2023-02-23T20:51:19.181Z,92.15
2023-02-23T20:53:48.739Z,92.10
2023-02-23T20:56:19.272Z,94.63
2023-02-23T20:58:47.214Z,90.53
2023-02-23T21:01:19.353Z,98.80
2023-02-23T21:03:46.984Z,109.55
2023-02-23T21:06:16.041Z,97.43
2023-02-23T21:08:46.289Z,95.35
2023-02-23T21:11:13.644Z,96.22
2023-02-23T21:13:40.813Z,96.80
2023-02-23T21:16:08.318Z,95.88
2023-02-23T21:18:35.449Z,95.22
2023-02-23T21:21:09.713Z,101.10
2023-02-23T21:23:38.811Z,95.68
2023-02-23T21:26:13.092Z,97.70
2023-02-23T21:28:45.472Z,92.47
2023-02-23T21:31:14.285Z,92.47
2023-02-23T21:33:43.642Z,96.22
2023-02-23T21:36:12.683Z,100.03
2023-02-23T21:38:42.219Z,101.20
2023-02-23T21:41:15.222Z,91.28
2023-02-23T21:43:43.862Z,97.63
2023-02-23T21:46:16.579Z,98.65
2023-02-23T21:48:44.667Z,103.70
2023-02-23T21:51:14.680Z,102.10
2023-02-23T21:53:43.945Z,111.05
2023-02-23T21:56:15.523Z,103.95
2023-02-23T21:58:53.110Z,103.38
2023-02-23T22:01:24.886Z,106.57
2023-02-23T22:03:54.862Z,96.38
2023-02-23T22:06:29.193Z,101.88
2023-02-23T22:08:57.794Z,106.13
2023-02-23T22:11:27.962Z,111.53
2023-02-23T22:14:01.731Z,107.00
2023-02-23T22:16:35.779Z,105.88
2023-02-23T22:19:04.582Z,106.45
2023-02-23T22:21:38.771Z,109.65
2023-02-23T22:24:08.032Z,106.55
2023-02-23T22:26:39.030Z,103.50
2023-02-23T22:29:07.586Z,116.05
2023-02-23T22:31:39.026Z,113.28
2023-02-23T22:34:07.301Z,106.80
2023-02-23T22:36:34.998Z,107.15
2023-02-23T22:39:05.725Z,110.47
2023-02-23T22:41:33.072Z,120.07
2023-02-23T22:44:00.155Z,113.28
2023-02-23T22:46:27.329Z,106.88
2023-02-23T22:48:54.394Z,99.88
2023-02-23T22:51:22.108Z,106.13
2023-02-23T22:53:49.653Z,110.93
2023-02-23T22:56:16.683Z,104.30
2023-02-23T22:58:43.956Z,103.32
2023-02-23T23:01:12.343Z,109.13
2023-02-23T23:03:48.011Z,104.28
2023-02-23T23:06:22.958Z,111.10
2023-02-23T23:08:53.761Z,111.80
2023-02-23T23:11:26.861Z,119.30
2023-02-23T23:14:02.140Z,118.78
2023-02-23T23:16:33.543Z,111.07
2023-02-23T23:19:13.026Z,96.45
2023-02-23T23:21:42.410Z,100.13
2023-02-23T23:24:15.681Z,123.95
2023-02-23T23:26:44.383Z,110.17
2023-02-23T23:29:14.645Z,100.60
2023-02-23T23:31:45.793Z,106.55
2023-02-23T23:34:14.385Z,103.40
2023-02-23T23:36:53.355Z,95.45
2023-02-23T23:39:26.130Z,109.75
2023-02-23T23:41:54.401Z,106.10
2023-02-23T23:44:24.308Z,105.10
2023-02-23T23:46:51.554Z,96.07
2023-02-23T23:49:25.609Z,102.22
2023-02-23T23:54:31.020Z,109.28
